Time;durP1;ratioP1;P1;durP2;ratioP2;P2;SDS_P1;SDS_P2;PMS_P1;PMS_P2;Temp;Humidity;BMP_temperature;BMP_pressure;BME280_temperature;BME280_humidity;BME280_pressure;Samples;Min_cycle;Max_cycle;Signal;HPM_P1;HPM_P2
2022/08/03 00:01:08;;;;;;;1.37;1.10;;;;;;;;;;5124942;27;20242;-57
2022/08/03 00:03:55;;;;;;;1.03;0.80;;;;;;;;;;5120719;27;20260;-58
2022/08/03 00:06:42;;;;;;;0.83;0.83;;;;;;;;;;5122819;27;20690;-58
2022/08/03 00:09:30;;;;;;;0.87;0.87;;;;;;;;;;5127740;27;20214;-58
2022/08/03 00:12:17;;;;;;;0.90;0.90;;;;;;;;;;5120279;27;20291;-57
2022/08/03 00:15:06;;;;;;;1.03;0.90;;;;;;;;;;5121175;27;20203;-58
2022/08/03 00:17:53;;;;;;;0.77;0.77;;;;;;;;;;5123339;27;20221;-58
2022/08/03 00:20:40;;;;;;;0.83;0.83;;;;;;;;;;5117085;27;20212;-58
2022/08/03 00:23:27;;;;;;;0.70;0.70;;;;;;;;;;5123565;27;20243;-58
2022/08/03 00:26:14;;;;;;;1.13;0.90;;;;;;;;;;5121764;27;20232;-58
2022/08/03 00:29:01;;;;;;;0.60;0.60;;;;;;;;;;5120444;27;20212;-57
2022/08/03 00:31:49;;;;;;;0.67;0.67;;;;;;;;;;5124535;27;20239;-58
2022/08/03 00:34:36;;;;;;;0.80;0.80;;;;;;;;;;5124746;27;20736;-58
2022/08/03 00:37:23;;;;;;;0.90;0.90;;;;;;;;;;5119344;27;20207;-58
2022/08/03 00:40:12;;;;;;;0.60;0.60;;;;;;;;;;5121768;27;20645;-59
2022/08/03 00:43:00;;;;;;;1.07;0.83;;;;;;;;;;5118279;27;20294;-58
2022/08/03 00:45:48;;;;;;;1.00;0.97;;;;;;;;;;5119268;27;20269;-58
2022/08/03 00:48:36;;;;;;;0.80;0.60;;;;;;;;;;5116374;27;20205;-58
2022/08/03 00:51:24;;;;;;;0.80;0.80;;;;;;;;;;5121632;27;20210;-57
2022/08/03 00:54:11;;;;;;;1.07;0.80;;;;;;;;;;5123862;27;20209;-58
2022/08/03 00:56:58;;;;;;;0.60;0.60;;;;;;;;;;5118331;27;20710;-59
2022/08/03 00:59:45;;;;;;;1.00;0.90;;;;;;;;;;5124054;27;20706;-58
2022/08/03 01:02:33;;;;;;;0.57;0.57;;;;;;;;;;5124525;27;20671;-57
2022/08/03 01:05:22;;;;;;;0.73;0.73;;;;;;;;;;5122228;27;20997;-58
2022/08/03 01:08:22;;;;;;;0.67;0.67;;;;;;;;;;5119290;27;20270;-58
2022/08/03 01:11:16;;;;;;;1.10;1.00;;;;;;;;;;5117005;27;20210;-58
2022/08/03 01:14:08;;;;;;;0.83;0.83;;;;;;;;;;5126994;27;20207;-58
2022/08/03 01:17:01;;;;;;;0.97;0.90;;;;;;;;;;5116523;27;20287;-58
2022/08/03 01:19:56;;;;;;;0.80;0.80;;;;;;;;;;5119254;27;20677;-57
2022/08/03 01:23:03;;;;;;;0.80;0.80;;;;;;;;;;5123437;27;20196;-58
2022/08/03 01:26:14;;;;;;;0.87;0.87;;;;;;;;;;5123277;27;20814;-58
2022/08/03 01:29:15;;;;;;;0.53;0.53;;;;;;;;;;5119231;27;20707;-58
2022/08/03 01:32:10;;;;;;;0.97;0.83;;;;;;;;;;5117170;27;20215;-58
2022/08/03 01:35:02;;;;;;;1.37;1.03;;;;;;;;;;5122421;27;20237;-58
2022/08/03 01:37:53;;;;;;;0.70;0.70;;;;;;;;;;5118901;27;20216;-57
2022/08/03 01:40:41;;;;;;;0.80;0.80;;;;;;;;;;5120317;27;20195;-58
2022/08/03 01:43:30;;;;;;;1.23;1.07;;;;;;;;;;5124456;27;20217;-58
2022/08/03 01:46:19;;;;;;;0.70;0.70;;;;;;;;;;5122668;27;20657;-58
2022/08/03 01:49:10;;;;;;;0.90;0.80;;;;;;;;;;5122618;27;20243;-58
2022/08/03 01:51:59;;;;;;;1.00;1.00;;;;;;;;;;5124084;27;20633;-58
2022/08/03 01:54:49;;;;;;;0.83;0.83;;;;;;;;;;5118114;27;20565;-58
2022/08/03 01:57:39;;;;;;;1.17;0.90;;;;;;;;;;5121676;27;20669;-58
2022/08/03 02:00:27;;;;;;;0.90;0.90;;;;;;;;;;5116258;27;20207;-57
2022/08/03 02:03:16;;;;;;;1.20;1.10;;;;;;;;;;5117003;27;20208;-58
2022/08/03 02:06:05;;;;;;;0.90;0.90;;;;;;;;;;5118356;27;20304;-57
2022/08/03 02:08:54;;;;;;;0.83;0.73;;;;;;;;;;5121896;27;20215;-58
2022/08/03 02:11:42;;;;;;;1.13;1.13;;;;;;;;;;5118079;27;20734;-57
2022/08/03 02:14:31;;;;;;;1.00;1.00;;;;;;;;;;5117941;27;20211;-58
2022/08/03 02:17:20;;;;;;;1.10;0.97;;;;;;;;;;5119413;27;20207;-58
2022/08/03 02:20:10;;;;;;;1.50;1.40;;;;;;;;;;5119840;27;20205;-58
2022/08/03 02:22:59;;;;;;;0.73;0.73;;;;;;;;;;5121745;27;20203;-58
2022/08/03 02:25:50;;;;;;;1.17;1.13;;;;;;;;;;5110265;27;20239;-57
2022/08/03 02:28:41;;;;;;;1.00;1.00;;;;;;;;;;5097224;28;20206;-58
2022/08/03 02:31:33;;;;;;;1.27;1.07;;;;;;;;;;5101548;28;20208;-58
2022/08/03 02:34:24;;;;;;;0.93;0.93;;;;;;;;;;5101119;28;20210;-58
2022/08/03 02:37:12;;;;;;;1.10;1.10;;;;;;;;;;5100725;28;20203;-59
2022/08/03 02:40:04;;;;;;;1.20;1.20;;;;;;;;;;5098210;28;20210;-58
2022/08/03 02:42:54;;;;;;;1.23;1.13;;;;;;;;;;5098694;28;20211;-58
2022/08/03 02:45:44;;;;;;;1.33;1.20;;;;;;;;;;5098641;28;20220;-58
2022/08/03 02:48:34;;;;;;;1.20;1.20;;;;;;;;;;5102498;28;20208;-58
2022/08/03 02:51:23;;;;;;;1.30;1.20;;;;;;;;;;5104761;28;20210;-58
2022/08/03 02:54:11;;;;;;;1.10;1.10;;;;;;;;;;5099529;28;20210;-58
2022/08/03 02:57:02;;;;;;;1.37;1.30;;;;;;;;;;5101850;28;20203;-58
2022/08/03 02:59:50;;;;;;;1.17;1.17;;;;;;;;;;5097130;28;20211;-58
2022/08/03 03:02:39;;;;;;;1.10;1.10;;;;;;;;;;5096766;28;20215;-58
2022/08/03 03:05:27;;;;;;;1.77;1.27;;;;;;;;;;5096314;28;20703;-58
2022/08/03 03:08:16;;;;;;;1.23;1.23;;;;;;;;;;5100375;28;20207;-58
2022/08/03 03:11:03;;;;;;;1.20;1.10;;;;;;;;;;5096320;28;20687;-57
2022/08/03 03:13:53;;;;;;;1.00;1.00;;;;;;;;;;5098261;28;20217;-59
2022/08/03 03:16:41;;;;;;;1.33;1.33;;;;;;;;;;5102371;28;20321;-58
2022/08/03 03:19:30;;;;;;;1.00;1.00;;;;;;;;;;5097355;28;20212;-58
2022/08/03 03:22:18;;;;;;;1.40;1.30;;;;;;;;;;5098251;28;20216;-58
2022/08/03 03:25:06;;;;;;;1.00;0.90;;;;;;;;;;5094238;28;20259;-58
2022/08/03 03:27:54;;;;;;;1.20;1.20;;;;;;;;;;5098091;28;20356;-58
2022/08/03 03:30:42;;;;;;;1.00;1.00;;;;;;;;;;5100677;28;20797;-58
2022/08/03 03:33:30;;;;;;;1.03;1.03;;;;;;;;;;5099452;28;20205;-58
2022/08/03 03:36:17;;;;;;;1.30;1.20;;;;;;;;;;5099466;28;20201;-58
2022/08/03 03:39:05;;;;;;;1.20;1.20;;;;;;;;;;5096812;28;20209;-58
2022/08/03 03:41:52;;;;;;;0.97;0.97;;;;;;;;;;5095053;28;20219;-59
2022/08/03 03:44:39;;;;;;;1.30;1.20;;;;;;;;;;5099697;28;20200;-58
2022/08/03 03:47:28;;;;;;;1.00;1.00;;;;;;;;;;5102525;28;20213;-57
2022/08/03 03:50:17;;;;;;;1.30;1.20;;;;;;;;;;5095851;28;20229;-58
2022/08/03 03:53:04;;;;;;;1.37;1.27;;;;;;;;;;5101598;28;20208;-58
2022/08/03 03:55:52;;;;;;;1.13;1.03;;;;;;;;;;5096394;28;20209;-58
2022/08/03 03:58:39;;;;;;;1.27;1.20;;;;;;;;;;5099740;28;20207;-58
2022/08/03 04:01:26;;;;;;;1.00;1.00;;;;;;;;;;5095982;28;20220;-59
2022/08/03 04:13:35;;;;;;;1.13;1.10;;;;;;;;;;5094166;28;20616;-58
2022/08/03 04:16:24;;;;;;;1.20;1.20;;;;;;;;;;5100884;28;20206;-58
2022/08/03 04:19:17;;;;;;;1.00;1.00;;;;;;;;;;5100790;28;20276;-58
2022/08/03 04:22:07;;;;;;;1.10;1.10;;;;;;;;;;5094686;28;20212;-58
2022/08/03 04:24:59;;;;;;;1.07;1.07;;;;;;;;;;5100441;28;20281;-58
2022/08/03 04:27:51;;;;;;;1.93;1.47;;;;;;;;;;5121583;27;20639;-58
2022/08/03 04:30:46;;;;;;;1.10;1.10;;;;;;;;;;5117923;27;20306;-58
2022/08/03 04:33:35;;;;;;;1.17;1.17;;;;;;;;;;5119815;27;20693;-58
2022/08/03 04:36:27;;;;;;;1.20;1.20;;;;;;;;;;5120206;27;20571;-58
2022/08/03 04:39:19;;;;;;;1.27;1.17;;;;;;;;;;5119443;27;20205;-58
2022/08/03 04:42:08;;;;;;;1.17;1.03;;;;;;;;;;5118756;27;20669;-58
2022/08/03 04:44:56;;;;;;;1.20;1.20;;;;;;;;;;5121368;27;20219;-58
2022/08/03 04:47:44;;;;;;;1.20;1.10;;;;;;;;;;5119521;27;20212;-58
2022/08/03 04:50:31;;;;;;;2.40;1.13;;;;;;;;;;5123654;27;20700;-58
2022/08/03 04:53:19;;;;;;;1.40;1.20;;;;;;;;;;5116114;27;20204;-58
2022/08/03 04:56:07;;;;;;;1.03;1.03;;;;;;;;;;5120063;27;20203;-58
2022/08/03 04:58:54;;;;;;;1.20;1.20;;;;;;;;;;5117008;27;20208;-58
2022/08/03 05:01:41;;;;;;;1.00;1.00;;;;;;;;;;5125681;27;20204;-58
2022/08/03 05:04:28;;;;;;;1.10;1.10;;;;;;;;;;5120776;27;20291;-58
2022/08/03 05:07:16;;;;;;;0.97;0.97;;;;;;;;;;5123991;27;20241;-58
2022/08/03 05:10:07;;;;;;;0.80;0.80;;;;;;;;;;5120383;27;20222;-58
2022/08/03 05:12:54;;;;;;;1.10;1.10;;;;;;;;;;5120399;27;20256;-58
2022/08/03 05:15:41;;;;;;;1.10;1.10;;;;;;;;;;5120375;27;20204;-58
2022/08/03 05:18:28;;;;;;;1.03;1.03;;;;;;;;;;5123063;27;20242;-58
2022/08/03 05:21:15;;;;;;;1.00;1.00;;;;;;;;;;5120410;27;20207;-58
2022/08/03 05:24:03;;;;;;;0.90;0.90;;;;;;;;;;5122195;27;20906;-58
2022/08/03 05:26:51;;;;;;;2.30;0.90;;;;;;;;;;5122065;27;20239;-58
2022/08/03 05:29:38;;;;;;;0.90;0.90;;;;;;;;;;5117986;27;20660;-58
2022/08/03 05:32:25;;;;;;;0.80;0.80;;;;;;;;;;5117389;27;20269;-58
2022/08/03 05:35:12;;;;;;;0.70;0.70;;;;;;;;;;5119011;27;20226;-59
2022/08/03 05:37:59;;;;;;;1.13;1.10;;;;;;;;;;5118431;27;20252;-58
2022/08/03 05:40:46;;;;;;;0.90;0.90;;;;;;;;;;5118454;27;20201;-58
2022/08/03 05:43:34;;;;;;;0.80;0.80;;;;;;;;;;5118809;27;20597;-59
2022/08/03 05:46:22;;;;;;;1.00;1.00;;;;;;;;;;5120269;27;20264;-58
2022/08/03 05:49:09;;;;;;;1.00;1.00;;;;;;;;;;5119514;27;20199;-59
2022/08/03 05:51:56;;;;;;;1.13;1.13;;;;;;;;;;5121755;27;20204;-58
2022/08/03 05:54:43;;;;;;;1.10;1.10;;;;;;;;;;5118951;27;20215;-58
2022/08/03 05:57:30;;;;;;;1.30;1.20;;;;;;;;;;5118907;27;20521;-58
2022/08/03 06:00:18;;;;;;;1.00;1.00;;;;;;;;;;5122428;27;20574;-58
2022/08/03 06:03:05;;;;;;;1.10;1.10;;;;;;;;;;5115684;27;20220;-58
2022/08/03 06:05:54;;;;;;;2.07;1.10;;;;;;;;;;5118203;27;20239;-58
2022/08/03 06:08:42;;;;;;;0.97;0.97;;;;;;;;;;5116864;27;20731;-58
2022/08/03 06:11:29;;;;;;;1.00;1.00;;;;;;;;;;5118846;27;20205;-59
2022/08/03 06:14:16;;;;;;;0.90;0.90;;;;;;;;;;5122082;27;20287;-58
2022/08/03 06:17:04;;;;;;;1.23;1.13;;;;;;;;;;5118223;27;20695;-57
2022/08/03 06:19:52;;;;;;;1.10;1.10;;;;;;;;;;5116331;27;20229;-58
2022/08/03 06:22:39;;;;;;;1.10;1.10;;;;;;;;;;5122256;27;20262;-57
2022/08/03 06:25:26;;;;;;;1.10;1.10;;;;;;;;;;5114993;27;20235;-58
2022/08/03 06:28:13;;;;;;;1.00;1.00;;;;;;;;;;5117913;27;20604;-58
2022/08/03 06:31:00;;;;;;;1.20;1.20;;;;;;;;;;5118552;27;20688;-57
2022/08/03 06:33:49;;;;;;;1.30;1.17;;;;;;;;;;5120724;27;20212;-59
2022/08/03 06:36:37;;;;;;;1.30;1.30;;;;;;;;;;5117341;27;20704;-58
2022/08/03 06:39:24;;;;;;;1.07;1.07;;;;;;;;;;5124063;27;20284;-58
2022/08/03 06:42:11;;;;;;;1.13;1.13;;;;;;;;;;5115535;27;20211;-58
2022/08/03 06:44:58;;;;;;;0.97;0.97;;;;;;;;;;5113548;27;20203;-58
2022/08/03 06:47:45;;;;;;;1.10;1.10;;;;;;;;;;5118844;27;20774;-58
2022/08/03 06:50:34;;;;;;;1.40;1.30;;;;;;;;;;5120176;27;20202;-59
2022/08/03 06:53:21;;;;;;;1.50;1.40;;;;;;;;;;5118760;27;21121;-58
2022/08/03 06:56:08;;;;;;;1.20;1.10;;;;;;;;;;5120457;27;20206;-58
2022/08/03 06:58:56;;;;;;;1.33;1.27;;;;;;;;;;5118937;27;20679;-59
2022/08/03 07:01:43;;;;;;;1.17;1.17;;;;;;;;;;5121078;27;20690;-58
2022/08/03 07:04:30;;;;;;;1.50;1.40;;;;;;;;;;5116652;27;20620;-58
2022/08/03 07:07:19;;;;;;;1.10;1.00;;;;;;;;;;5123688;27;20228;-58
2022/08/03 07:10:07;;;;;;;1.50;1.40;;;;;;;;;;5119121;27;20204;-58
2022/08/03 07:12:54;;;;;;;1.50;1.40;;;;;;;;;;5114460;28;20220;-58
2022/08/03 07:15:41;;;;;;;1.20;1.20;;;;;;;;;;5122171;27;20659;-58
2022/08/03 07:18:28;;;;;;;1.40;1.33;;;;;;;;;;5115288;27;20217;-58
2022/08/03 07:21:16;;;;;;;1.50;1.40;;;;;;;;;;5119017;27;20228;-58
2022/08/03 07:24:05;;;;;;;1.20;1.20;;;;;;;;;;5121520;27;20209;-58
2022/08/03 07:26:52;;;;;;;1.20;1.20;;;;;;;;;;5120610;28;20314;-57
2022/08/03 07:29:39;;;;;;;1.40;1.17;;;;;;;;;;5115410;28;20250;-59
2022/08/03 07:32:27;;;;;;;1.02;1.00;;;;;;;;;;5122354;28;20238;-58
2022/08/03 07:35:14;;;;;;;1.17;1.17;;;;;;;;;;5119249;28;20795;-58
2022/08/03 07:38:01;;;;;;;1.42;1.33;;;;;;;;;;5120988;28;20253;-57
2022/08/03 07:40:49;;;;;;;1.20;1.20;;;;;;;;;;5118258;28;20200;-58
2022/08/03 07:43:36;;;;;;;1.30;1.20;;;;;;;;;;5120460;28;20601;-56
2022/08/03 07:46:23;;;;;;;1.13;1.13;;;;;;;;;;5120596;28;20353;-56
2022/08/03 07:49:10;;;;;;;1.40;1.30;;;;;;;;;;5123871;27;20642;-56
2022/08/03 07:55:01;;;;;;;1.20;1.17;;;;;;;;;;5116618;28;20216;-57
2022/08/03 07:57:59;;;;;;;1.15;1.10;;;;;;;;;;5115571;27;20201;-56
2022/08/03 08:00:46;;;;;;;1.10;1.10;;;;;;;;;;5115562;27;20213;-56
2022/08/03 08:03:33;;;;;;;1.15;1.10;;;;;;;;;;5124896;27;20216;-57
2022/08/03 08:06:22;;;;;;;1.05;1.00;;;;;;;;;;5120532;27;20229;-56
2022/08/03 08:09:10;;;;;;;1.23;1.20;;;;;;;;;;5121836;27;20658;-56
2022/08/03 08:11:57;;;;;;;1.40;1.30;;;;;;;;;;5120988;27;20237;-56
2022/08/03 08:14:45;;;;;;;1.30;1.30;;;;;;;;;;5123972;27;20266;-57
2022/08/03 08:17:41;;;;;;;1.00;1.00;;;;;;;;;;5120549;27;20206;-59
2022/08/03 08:20:31;;;;;;;1.30;1.20;;;;;;;;;;5121214;27;20680;-56
2022/08/03 08:23:21;;;;;;;1.30;1.20;;;;;;;;;;5126313;27;20676;-56
2022/08/03 08:26:08;;;;;;;1.10;1.10;;;;;;;;;;5118663;27;20230;-57
2022/08/03 08:28:55;;;;;;;1.27;1.17;;;;;;;;;;5121141;27;20256;-59
2022/08/03 08:31:43;;;;;;;1.50;1.40;;;;;;;;;;5120837;27;20206;-59
2022/08/03 08:34:30;;;;;;;1.35;1.35;;;;;;;;;;5127748;27;20661;-57
2022/08/03 08:37:17;;;;;;;2.00;1.40;;;;;;;;;;5120974;27;20197;-57
2022/08/03 08:40:06;;;;;;;2.95;1.30;;;;;;;;;;5126125;27;20568;-58
2022/08/03 08:42:53;;;;;;;1.40;1.30;;;;;;;;;;5123874;27;20224;-58
2022/08/03 08:45:41;;;;;;;1.45;1.35;;;;;;;;;;5122757;27;20209;-58
2022/08/03 08:48:30;;;;;;;1.40;1.40;;;;;;;;;;5121333;27;20293;-57
2022/08/03 08:51:19;;;;;;;2.75;1.17;;;;;;;;;;5125095;27;20575;-57
2022/08/03 08:54:08;;;;;;;1.40;1.30;;;;;;;;;;5122163;27;20665;-58
2022/08/03 08:56:58;;;;;;;1.38;1.33;;;;;;;;;;5123629;27;20230;-58
2022/08/03 08:59:45;;;;;;;1.27;1.17;;;;;;;;;;5121250;27;20237;-59
2022/08/03 09:02:32;;;;;;;1.00;1.00;;;;;;;;;;5125234;27;20273;-57
2022/08/03 09:05:21;;;;;;;1.45;1.38;;;;;;;;;;5119522;27;20233;-58
2022/08/03 09:08:08;;;;;;;1.13;1.13;;;;;;;;;;5117572;27;20224;-58
2022/08/03 09:10:55;;;;;;;1.33;1.27;;;;;;;;;;5123493;27;20201;-57
2022/08/03 09:13:42;;;;;;;1.45;1.35;;;;;;;;;;5122990;27;20201;-57
2022/08/03 09:16:29;;;;;;;1.27;1.20;;;;;;;;;;5117499;27;20246;-58
2022/08/03 09:19:16;;;;;;;2.85;1.60;;;;;;;;;;5120784;27;20692;-57
2022/08/03 09:22:16;;;;;;;1.35;1.25;;;;;;;;;;5126629;27;20217;-58
2022/08/03 09:25:06;;;;;;;1.27;1.20;;;;;;;;;;5117427;27;20312;-58
2022/08/03 09:27:53;;;;;;;1.20;1.20;;;;;;;;;;5117043;27;20232;-58
2022/08/03 09:30:43;;;;;;;1.33;1.30;;;;;;;;;;5121264;27;20212;-57
2022/08/03 09:33:30;;;;;;;1.27;1.17;;;;;;;;;;5122504;27;20202;-58
2022/08/03 09:36:36;;;;;;;2.45;1.30;;;;;;;;;;5118906;27;20198;-57
2022/08/03 09:39:26;;;;;;;1.30;1.30;;;;;;;;;;5121151;27;20206;-58
2022/08/03 09:42:16;;;;;;;1.45;1.45;;;;;;;;;;5121071;27;20198;-57
2022/08/03 09:45:03;;;;;;;1.42;1.40;;;;;;;;;;5121130;27;20225;-57
2022/08/03 09:47:50;;;;;;;1.60;1.52;;;;;;;;;;5117817;27;20247;-58
2022/08/03 09:50:48;;;;;;;1.40;1.40;;;;;;;;;;5119704;27;20263;-58
2022/08/03 09:53:42;;;;;;;1.23;1.23;;;;;;;;;;5122212;27;20681;-58
2022/08/03 09:56:42;;;;;;;1.60;1.20;;;;;;;;;;5119723;27;20212;-57
2022/08/03 09:59:32;;;;;;;1.40;1.35;;;;;;;;;;5117401;27;20206;-57
2022/08/03 10:02:24;;;;;;;1.75;1.65;;;;;;;;;;5120695;27;20205;-57
2022/08/03 10:05:12;;;;;;;1.50;1.40;;;;;;;;;;5117777;27;20245;-58
2022/08/03 10:07:59;;;;;;;1.52;1.33;;;;;;;;;;5125131;27;20229;-57
2022/08/03 10:10:48;;;;;;;1.50;1.40;;;;;;;;;;5123809;27;20678;-57
2022/08/03 10:13:37;;;;;;;1.58;1.48;;;;;;;;;;5117787;27;20740;-58
2022/08/03 10:16:25;;;;;;;1.90;1.73;;;;;;;;;;5115341;27;20213;-57
2022/08/03 10:19:13;;;;;;;1.63;1.52;;;;;;;;;;5119867;27;20220;-59
2022/08/03 10:22:04;;;;;;;1.27;1.27;;;;;;;;;;5122508;27;20201;-58
2022/08/03 10:24:55;;;;;;;1.30;1.30;;;;;;;;;;5123106;27;20227;-57
2022/08/03 10:27:47;;;;;;;1.10;1.10;;;;;;;;;;5105689;28;20227;-57
2022/08/03 10:30:37;;;;;;;1.45;1.35;;;;;;;;;;5102663;28;20201;-58
2022/08/03 10:33:27;;;;;;;1.48;1.40;;;;;;;;;;5101612;28;20206;-58
2022/08/03 10:36:16;;;;;;;1.85;1.48;;;;;;;;;;5100605;28;20241;-58
2022/08/03 10:39:03;;;;;;;2.15;1.30;;;;;;;;;;5103940;28;20614;-57
2022/08/03 10:41:51;;;;;;;1.63;1.52;;;;;;;;;;5101769;28;20571;-57
2022/08/03 10:44:41;;;;;;;1.75;1.65;;;;;;;;;;5099419;28;20687;-57
2022/08/03 10:47:30;;;;;;;1.45;1.35;;;;;;;;;;5100596;28;20242;-58
2022/08/03 10:50:18;;;;;;;1.67;1.52;;;;;;;;;;5097918;28;20217;-58
2022/08/03 10:53:06;;;;;;;1.45;1.35;;;;;;;;;;5103410;28;20288;-57
2022/08/03 10:58:58;;;;;;;1.45;1.30;;;;;;;;;;5103923;28;20293;-57
2022/08/03 11:01:52;;;;;;;1.40;1.35;;;;;;;;;;5100500;28;20355;-57
2022/08/03 11:04:43;;;;;;;1.67;1.58;;;;;;;;;;5101655;28;20206;-57
2022/08/03 11:07:30;;;;;;;1.20;1.20;;;;;;;;;;5101084;28;20235;-57
2022/08/03 11:10:30;;;;;;;1.40;1.40;;;;;;;;;;5103575;28;20208;-57
2022/08/03 11:13:19;;;;;;;1.58;1.52;;;;;;;;;;5103790;28;20624;-58
2022/08/03 11:16:22;;;;;;;1.67;1.58;;;;;;;;;;5100056;28;20212;-58
2022/08/03 11:19:11;;;;;;;1.92;1.80;;;;;;;;;;5101329;28;20194;-58
2022/08/03 11:22:00;;;;;;;1.83;1.73;;;;;;;;;;5102468;28;20266;-58
2022/08/03 11:25:00;;;;;;;1.80;1.70;;;;;;;;;;5101974;28;20205;-57
2022/08/03 11:27:47;;;;;;;1.70;1.60;;;;;;;;;;5095146;28;20723;-58
2022/08/03 11:30:33;;;;;;;2.15;1.83;;;;;;;;;;5098993;28;20208;-58
2022/08/03 11:33:29;;;;;;;1.50;1.40;;;;;;;;;;5108205;28;20281;-57
2022/08/03 11:36:16;;;;;;;1.90;1.80;;;;;;;;;;5103376;28;20322;-57
2022/08/03 11:39:14;;;;;;;1.70;1.60;;;;;;;;;;5105299;28;20287;-57
2022/08/03 11:42:42;;;;;;;1.45;1.42;;;;;;;;;;5106563;28;20575;-57
2022/08/03 11:45:31;;;;;;;1.88;1.67;;;;;;;;;;5100382;28;20232;-58
2022/08/03 11:48:18;;;;;;;2.40;1.95;;;;;;;;;;5103850;28;20312;-57
2022/08/03 11:51:06;;;;;;;1.80;1.70;;;;;;;;;;5104046;28;20210;-58
2022/08/03 11:53:55;;;;;;;1.80;1.70;;;;;;;;;;5099126;28;20253;-57
2022/08/03 11:56:48;;;;;;;1.60;1.50;;;;;;;;;;5105892;28;20731;-57
2022/08/03 11:59:37;;;;;;;2.00;1.90;;;;;;;;;;5103859;28;20230;-58
2022/08/03 12:02:24;;;;;;;1.63;1.52;;;;;;;;;;5103456;28;20202;-57
2022/08/03 12:05:11;;;;;;;2.10;1.90;;;;;;;;;;5108633;28;20229;-58
2022/08/03 12:07:58;;;;;;;1.90;1.80;;;;;;;;;;5105361;28;20226;-57
2022/08/03 12:10:50;;;;;;;1.83;1.73;;;;;;;;;;5108541;27;20606;-57
2022/08/03 12:13:41;;;;;;;1.90;1.80;;;;;;;;;;5105347;28;20666;-58
2022/08/03 12:16:28;;;;;;;2.03;1.80;;;;;;;;;;5111734;28;20202;-58
2022/08/03 12:19:15;;;;;;;1.77;1.67;;;;;;;;;;5104918;28;20202;-57
2022/08/03 12:22:02;;;;;;;1.80;1.70;;;;;;;;;;5100399;28;20217;-57
2022/08/03 12:24:50;;;;;;;2.72;1.70;;;;;;;;;;5104518;28;20670;-57
2022/08/03 12:27:37;;;;;;;1.67;1.58;;;;;;;;;;5105123;28;20233;-57
2022/08/03 12:30:25;;;;;;;1.67;1.58;;;;;;;;;;5106747;28;20252;-57
2022/08/03 12:33:18;;;;;;;1.77;1.67;;;;;;;;;;5101552;28;20207;-58
2022/08/03 12:36:07;;;;;;;1.92;1.83;;;;;;;;;;5104900;28;20582;-57
2022/08/03 12:38:56;;;;;;;1.73;1.63;;;;;;;;;;5105203;28;20206;-58
2022/08/03 12:41:43;;;;;;;1.58;1.52;;;;;;;;;;5105819;28;20209;-57
2022/08/03 12:44:31;;;;;;;1.90;1.80;;;;;;;;;;5100429;28;20670;-57
2022/08/03 12:47:20;;;;;;;2.00;1.90;;;;;;;;;;5094778;28;20209;-57
2022/08/03 12:50:07;;;;;;;2.13;1.92;;;;;;;;;;5096670;28;20283;-58
2022/08/03 12:52:54;;;;;;;1.83;1.60;;;;;;;;;;5097394;28;20285;-57
2022/08/03 12:55:41;;;;;;;1.40;1.40;;;;;;;;;;5101220;28;20209;-58
2022/08/03 12:58:32;;;;;;;1.80;1.70;;;;;;;;;;5097187;28;20293;-57
2022/08/03 13:01:21;;;;;;;1.40;1.40;;;;;;;;;;5093696;28;20293;-57
2022/08/03 13:04:10;;;;;;;1.65;1.55;;;;;;;;;;5095206;28;20213;-57
2022/08/03 13:06:58;;;;;;;1.98;1.88;;;;;;;;;;5094702;28;20226;-57
2022/08/03 13:09:47;;;;;;;2.08;1.98;;;;;;;;;;5099097;28;20213;-58
2022/08/03 13:12:46;;;;;;;1.98;1.88;;;;;;;;;;5102468;28;20309;-58
2022/08/03 13:15:33;;;;;;;1.80;1.70;;;;;;;;;;5097114;28;20238;-60
2022/08/03 13:18:20;;;;;;;1.52;1.42;;;;;;;;;;5102613;28;20197;-59
2022/08/03 13:21:08;;;;;;;1.52;1.48;;;;;;;;;;5102599;28;20230;-58
2022/08/03 13:23:55;;;;;;;1.60;1.58;;;;;;;;;;5098394;28;20247;-58
2022/08/03 13:26:42;;;;;;;1.60;1.50;;;;;;;;;;5095107;28;20229;-57
2022/08/03 13:29:29;;;;;;;1.30;1.30;;;;;;;;;;5097554;28;20322;-57
2022/08/03 13:32:16;;;;;;;1.50;1.50;;;;;;;;;;5102812;28;20318;-57
2022/08/03 13:35:04;;;;;;;1.95;1.85;;;;;;;;;;5100957;28;20685;-57
2022/08/03 13:37:52;;;;;;;1.65;1.55;;;;;;;;;;5100282;28;20542;-57
2022/08/03 13:40:39;;;;;;;1.90;1.80;;;;;;;;;;5098931;28;20209;-57
2022/08/03 13:43:26;;;;;;;1.67;1.58;;;;;;;;;;5097319;28;20244;-57
2022/08/03 13:46:13;;;;;;;1.75;1.65;;;;;;;;;;5095604;28;20212;-57
2022/08/03 13:49:00;;;;;;;1.70;1.60;;;;;;;;;;5096357;28;20222;-57
2022/08/03 13:51:47;;;;;;;1.63;1.60;;;;;;;;;;5101227;28;20247;-57
2022/08/03 13:54:35;;;;;;;1.70;1.60;;;;;;;;;;5097886;28;20228;-57
2022/08/03 13:57:22;;;;;;;1.70;1.60;;;;;;;;;;5095347;28;20214;-57
2022/08/03 14:00:11;;;;;;;1.90;1.80;;;;;;;;;;5102571;28;20210;-58
2022/08/03 14:02:59;;;;;;;1.60;1.50;;;;;;;;;;5099107;28;20214;-57
2022/08/03 14:05:47;;;;;;;1.70;1.60;;;;;;;;;;5099763;28;21202;-57
2022/08/03 14:08:34;;;;;;;2.15;1.70;;;;;;;;;;5097836;28;20230;-58
2022/08/03 14:11:22;;;;;;;1.60;1.60;;;;;;;;;;5099836;28;20201;-57
2022/08/03 14:14:09;;;;;;;1.45;1.42;;;;;;;;;;5095636;28;20194;-57
2022/08/03 14:16:56;;;;;;;1.77;1.67;;;;;;;;;;5096378;28;20199;-57
2022/08/03 14:19:43;;;;;;;1.67;1.58;;;;;;;;;;5095967;28;20288;-57
2022/08/03 14:22:30;;;;;;;1.60;1.60;;;;;;;;;;5095841;28;20233;-57
2022/08/03 14:25:17;;;;;;;1.80;1.70;;;;;;;;;;5099818;28;20197;-58
2022/08/03 14:28:05;;;;;;;1.42;1.33;;;;;;;;;;5095956;28;20610;-58
2022/08/03 14:30:53;;;;;;;1.52;1.45;;;;;;;;;;5097891;28;20209;-57
2022/08/03 14:33:40;;;;;;;1.77;1.70;;;;;;;;;;5095743;28;20208;-57
2022/08/03 14:36:27;;;;;;;1.90;1.80;;;;;;;;;;5097602;28;20242;-57
2022/08/03 14:39:14;;;;;;;1.90;1.80;;;;;;;;;;5097050;28;20206;-57
2022/08/03 14:42:01;;;;;;;1.60;1.50;;;;;;;;;;5096304;28;20218;-57
2022/08/03 14:44:49;;;;;;;1.77;1.67;;;;;;;;;;5096717;28;20288;-57
2022/08/03 14:47:36;;;;;;;1.67;1.58;;;;;;;;;;5098224;28;20652;-57
2022/08/03 14:50:24;;;;;;;1.40;1.40;;;;;;;;;;5096174;28;20198;-57
2022/08/03 14:53:11;;;;;;;2.00;1.80;;;;;;;;;;5096632;28;20206;-58
2022/08/03 14:55:58;;;;;;;1.45;1.42;;;;;;;;;;5097146;28;20208;-58
2022/08/03 14:58:45;;;;;;;1.75;1.65;;;;;;;;;;5101222;28;20244;-58
2022/08/03 15:01:33;;;;;;;1.65;1.65;;;;;;;;;;5098213;28;20212;-57
2022/08/03 15:04:20;;;;;;;1.33;1.33;;;;;;;;;;5093758;28;20206;-57
2022/08/03 15:07:07;;;;;;;1.67;1.58;;;;;;;;;;5097962;28;20228;-57
2022/08/03 15:09:54;;;;;;;2.22;2.13;;;;;;;;;;5105220;28;20284;-58
2022/08/03 15:12:41;;;;;;;1.80;1.70;;;;;;;;;;5096192;28;20724;-57
2022/08/03 15:15:28;;;;;;;1.75;1.65;;;;;;;;;;5106113;28;20215;-57
2022/08/03 15:18:16;;;;;;;1.50;1.40;;;;;;;;;;5101192;28;20202;-57
2022/08/03 15:21:03;;;;;;;1.73;1.63;;;;;;;;;;5103053;28;20210;-57
2022/08/03 15:23:51;;;;;;;1.50;1.40;;;;;;;;;;5100119;28;20222;-57
2022/08/03 15:26:38;;;;;;;1.77;1.67;;;;;;;;;;5106138;28;20241;-57
2022/08/03 15:29:25;;;;;;;1.75;1.65;;;;;;;;;;5095265;28;20670;-57
2022/08/03 15:32:12;;;;;;;1.55;1.55;;;;;;;;;;5100681;28;20687;-57
2022/08/03 15:35:01;;;;;;;1.77;1.67;;;;;;;;;;5097087;28;20217;-57
2022/08/03 15:37:48;;;;;;;2.30;1.80;;;;;;;;;;5092663;28;20577;-58
2022/08/03 15:40:35;;;;;;;2.13;1.73;;;;;;;;;;5095710;28;20692;-58
2022/08/03 15:43:22;;;;;;;1.88;1.77;;;;;;;;;;5103287;28;20210;-57
2022/08/03 15:46:09;;;;;;;1.77;1.67;;;;;;;;;;5094377;28;20218;-57
2022/08/03 15:48:56;;;;;;;1.70;1.60;;;;;;;;;;5094959;28;20245;-57
2022/08/03 15:51:45;;;;;;;1.60;1.50;;;;;;;;;;5094432;28;20219;-58
2022/08/03 15:54:32;;;;;;;1.83;1.55;;;;;;;;;;5094347;28;20604;-57
2022/08/03 15:57:19;;;;;;;1.70;1.60;;;;;;;;;;5100091;28;20212;-57
2022/08/03 16:00:08;;;;;;;1.55;1.50;;;;;;;;;;5097723;28;20291;-57
2022/08/03 16:02:56;;;;;;;1.58;1.48;;;;;;;;;;5100014;28;20202;-57
2022/08/03 16:05:43;;;;;;;1.70;1.60;;;;;;;;;;5096724;28;20253;-57
2022/08/03 16:08:32;;;;;;;2.40;1.65;;;;;;;;;;5100755;28;20232;-57
2022/08/03 16:11:19;;;;;;;1.83;1.73;;;;;;;;;;5102389;28;20601;-57
2022/08/03 16:14:06;;;;;;;1.92;1.75;;;;;;;;;;5094233;28;21676;-57
2022/08/03 16:16:53;;;;;;;1.80;1.70;;;;;;;;;;5097544;28;20364;-57
2022/08/03 16:19:40;;;;;;;1.88;1.77;;;;;;;;;;5097714;28;20214;-57
2022/08/03 16:22:26;;;;;;;2.13;1.55;;;;;;;;;;5100362;28;20210;-57
2022/08/03 16:25:16;;;;;;;1.55;1.45;;;;;;;;;;5106112;27;20213;-60
2022/08/03 16:28:03;;;;;;;1.67;1.58;;;;;;;;;;5121092;27;20202;-59
2022/08/03 16:30:50;;;;;;;1.65;1.60;;;;;;;;;;5123383;27;20222;-57
2022/08/03 16:33:37;;;;;;;1.65;1.58;;;;;;;;;;5120735;27;20296;-57
2022/08/03 16:36:24;;;;;;;1.50;1.50;;;;;;;;;;5119386;27;20275;-60
2022/08/03 16:39:11;;;;;;;1.70;1.60;;;;;;;;;;5121489;27;20219;-59
2022/08/03 16:42:00;;;;;;;1.80;1.70;;;;;;;;;;5114323;27;20688;-57
2022/08/03 16:44:47;;;;;;;1.92;1.70;;;;;;;;;;5116537;27;20200;-58
2022/08/03 16:47:34;;;;;;;3.75;1.77;;;;;;;;;;5118260;27;20274;-57
2022/08/03 16:50:21;;;;;;;1.67;1.58;;;;;;;;;;5121536;27;20222;-57
2022/08/03 16:53:09;;;;;;;2.00;1.58;;;;;;;;;;5115383;27;20213;-57
2022/08/03 16:55:56;;;;;;;1.50;1.48;;;;;;;;;;5120927;27;20208;-57
2022/08/03 16:58:45;;;;;;;1.60;1.50;;;;;;;;;;5118279;27;20300;-57
2022/08/03 17:01:32;;;;;;;1.60;1.50;;;;;;;;;;5121320;27;20238;-58
2022/08/03 17:04:19;;;;;;;1.50;1.45;;;;;;;;;;5119321;27;20207;-57
2022/08/03 17:07:06;;;;;;;1.77;1.67;;;;;;;;;;5120680;27;20236;-57